sensor_id;sensor_type;location;lat;lon;timestamp;pressure;altitude;pressure_sealevel;temperature;humidity
66486;BME280;53303;47.476;8.084;2022-10-16T00:01:25;96419.19;;;21.47;50.81
66486;BME280;53303;47.476;8.084;2022-10-16T00:03:54;96434.13;;;21.50;50.78
66486;BME280;53303;47.476;8.084;2022-10-16T00:06:21;96440.97;;;21.55;50.64
66486;BME280;53303;47.476;8.084;2022-10-16T00:08:48;96421.72;;;21.45;50.84
66486;BME280;53303;47.476;8.084;2022-10-16T00:11:25;96430.88;;;21.52;50.81
66486;BME280;53303;47.476;8.084;2022-10-16T00:13:56;96434.41;;;21.52;50.75
66486;BME280;53303;47.476;8.084;2022-10-16T00:16:22;96429.34;;;21.51;51.04
66486;BME280;53303;47.476;8.084;2022-10-16T00:18:47;96435.91;;;21.53;50.76
66486;BME280;53303;47.476;8.084;2022-10-16T00:21:19;96430.34;;;21.53;50.89
66486;BME280;53303;47.476;8.084;2022-10-16T00:23:45;96427.56;;;21.53;50.80
66486;BME280;53303;47.476;8.084;2022-10-16T00:26:13;96433.13;;;21.53;50.68
66486;BME280;53303;47.476;8.084;2022-10-16T00:28:39;96425.81;;;21.50;50.94
66486;BME280;53303;47.476;8.084;2022-10-16T00:31:09;96404.38;;;21.30;50.90
66486;BME280;53303;47.476;8.084;2022-10-16T00:33:35;96411.84;;;21.44;50.80
66486;BME280;53303;47.476;8.084;2022-10-16T00:36:02;96408.66;;;21.52;50.79
66486;BME280;53303;47.476;8.084;2022-10-16T00:38:28;96406.53;;;21.41;51.11
66486;BME280;53303;47.476;8.084;2022-10-16T00:40:54;96419.75;;;21.52;50.91
66486;BME280;53303;47.476;8.084;2022-10-16T00:46:26;96426.78;;;21.47;50.92
66486;BME280;53303;47.476;8.084;2022-10-16T00:51:33;96423.03;;;21.50;51.03
66486;BME280;53303;47.476;8.084;2022-10-16T00:54:00;96420.94;;;21.45;51.06
66486;BME280;53303;47.476;8.084;2022-10-16T00:56:27;96429.25;;;21.45;50.91
66486;BME280;53303;47.476;8.084;2022-10-16T00:58:52;96411.03;;;21.38;51.09
66486;BME280;53303;47.476;8.084;2022-10-16T01:01:18;96437.13;;;21.46;51.26
66486;BME280;53303;47.476;8.084;2022-10-16T01:03:43;96437.34;;;21.43;51.11
66486;BME280;53303;47.476;8.084;2022-10-16T01:06:24;96440.59;;;21.41;51.41
66486;BME280;53303;47.476;8.084;2022-10-16T01:14:59;96450.72;;;21.44;51.28
66486;BME280;53303;47.476;8.084;2022-10-16T01:17:43;96460.28;;;21.43;51.16
66486;BME280;53303;47.476;8.084;2022-10-16T01:20:37;96453.22;;;21.42;51.22
66486;BME280;53303;47.476;8.084;2022-10-16T01:25:59;96402.72;;;21.12;51.10
66486;BME280;53303;47.476;8.084;2022-10-16T01:28:53;96436.50;;;21.37;51.22
66486;BME280;53303;47.476;8.084;2022-10-16T01:31:23;96443.38;;;21.41;51.15
66486;BME280;53303;47.476;8.084;2022-10-16T01:36:38;96439.13;;;21.46;51.29
66486;BME280;53303;47.476;8.084;2022-10-16T01:39:08;96436.78;;;21.39;51.24
66486;BME280;53303;47.476;8.084;2022-10-16T01:41:41;96453.00;;;21.46;51.17
66486;BME280;53303;47.476;8.084;2022-10-16T01:44:28;96450.44;;;21.42;51.25
66486;BME280;53303;47.476;8.084;2022-10-16T01:46:55;96455.78;;;21.46;51.40
66486;BME280;53303;47.476;8.084;2022-10-16T01:49:23;96453.00;;;21.46;51.16
66486;BME280;53303;47.476;8.084;2022-10-16T01:51:52;96452.72;;;21.44;51.09
66486;BME280;53303;47.476;8.084;2022-10-16T01:54:20;96462.59;;;21.45;51.29
66486;BME280;53303;47.476;8.084;2022-10-16T01:56:47;96457.31;;;21.47;51.23
66486;BME280;53303;47.476;8.084;2022-10-16T01:59:18;96449.00;;;21.47;51.41
66486;BME280;53303;47.476;8.084;2022-10-16T02:01:49;96398.97;;;21.15;51.26
66486;BME280;53303;47.476;8.084;2022-10-16T02:04:55;96442.09;;;21.42;51.34
66486;BME280;53303;47.476;8.084;2022-10-16T02:07:23;96425.88;;;21.35;51.44
66486;BME280;53303;47.476;8.084;2022-10-16T02:09:51;96439.91;;;21.46;51.46
66486;BME280;53303;47.476;8.084;2022-10-16T02:12:28;96440.38;;;21.45;51.53
66486;BME280;53303;47.476;8.084;2022-10-16T02:14:56;96434.22;;;21.35;51.34
66486;BME280;53303;47.476;8.084;2022-10-16T02:17:22;96445.47;;;21.46;51.55
66486;BME280;53303;47.476;8.084;2022-10-16T02:19:50;96446.22;;;21.47;51.50
66486;BME280;53303;47.476;8.084;2022-10-16T02:22:28;96445.91;;;21.45;51.51
66486;BME280;53303;47.476;8.084;2022-10-16T02:25:11;96438.38;;;21.45;51.47
66486;BME280;53303;47.476;8.084;2022-10-16T02:27:53;96437.59;;;21.45;51.44
66486;BME280;53303;47.476;8.084;2022-10-16T02:30:34;96445.66;;;21.43;51.41
66486;BME280;53303;47.476;8.084;2022-10-16T02:33:03;96448.69;;;21.45;51.57
66486;BME280;53303;47.476;8.084;2022-10-16T02:35:30;96434.22;;;21.35;51.50
66486;BME280;53303;47.476;8.084;2022-10-16T02:37:59;96455.78;;;21.46;51.55
66486;BME280;53303;47.476;8.084;2022-10-16T02:40:25;96455.03;;;21.45;51.51
66486;BME280;53303;47.476;8.084;2022-10-16T02:42:52;96441.56;;;21.38;51.25
66486;BME280;53303;47.476;8.084;2022-10-16T02:45:19;96447.47;;;21.46;51.69
66486;BME280;53303;47.476;8.084;2022-10-16T02:47:45;96452.94;;;21.40;51.17
66486;BME280;53303;47.476;8.084;2022-10-16T02:50:13;96454.25;;;21.45;51.53
66486;BME280;53303;47.476;8.084;2022-10-16T02:52:41;96435.22;;;21.32;51.30
66486;BME280;53303;47.476;8.084;2022-10-16T02:55:07;96454.25;;;21.45;51.34
66486;BME280;53303;47.476;8.084;2022-10-16T02:57:32;96458.28;;;21.44;51.38
66486;BME280;53303;47.476;8.084;2022-10-16T02:59:58;96459.06;;;21.44;51.40
66486;BME280;53303;47.476;8.084;2022-10-16T03:02:24;96461.03;;;21.44;51.39
66486;BME280;53303;47.476;8.084;2022-10-16T03:04:50;96463.50;;;21.36;51.35
66486;BME280;53303;47.476;8.084;2022-10-16T03:07:15;96447.06;;;21.33;51.53
66486;BME280;53303;47.476;8.084;2022-10-16T03:09:40;96467.88;;;21.43;51.57
66486;BME280;53303;47.476;8.084;2022-10-16T03:12:06;96464.31;;;21.42;51.29
66486;BME280;53303;47.476;8.084;2022-10-16T03:14:32;96473.69;;;21.45;51.37
66486;BME280;53303;47.476;8.084;2022-10-16T03:16:57;96474.41;;;21.40;51.60
66486;BME280;53303;47.476;8.084;2022-10-16T03:19:25;96455.41;;;21.33;51.45
66486;BME280;53303;47.476;8.084;2022-10-16T03:21:50;96471.13;;;21.41;51.67
66486;BME280;53303;47.476;8.084;2022-10-16T03:24:15;96481.75;;;21.43;51.29
66486;BME280;53303;47.476;8.084;2022-10-16T03:26:41;96473.16;;;21.41;51.45
66486;BME280;53303;47.476;8.084;2022-10-16T03:29:06;96454.13;;;21.34;51.40
66486;BME280;53303;47.476;8.084;2022-10-16T03:31:32;96471.41;;;21.43;51.54
66486;BME280;53303;47.476;8.084;2022-10-16T03:33:58;96471.13;;;21.41;51.48
66486;BME280;53303;47.476;8.084;2022-10-16T03:36:25;96473.44;;;21.43;51.42
66486;BME280;53303;47.476;8.084;2022-10-16T03:38:51;96475.16;;;21.40;51.65
66486;BME280;53303;47.476;8.084;2022-10-16T03:41:16;96469.88;;;21.42;51.52
66486;BME280;53303;47.476;8.084;2022-10-16T03:43:42;96456.91;;;21.34;51.56
66486;BME280;53303;47.476;8.084;2022-10-16T03:46:07;96473.44;;;21.43;51.44
66486;BME280;53303;47.476;8.084;2022-10-16T03:48:33;96473.44;;;21.43;51.50
66486;BME280;53303;47.476;8.084;2022-10-16T03:50:58;96470.66;;;21.43;51.63
66486;BME280;53303;47.476;8.084;2022-10-16T03:53:24;96425.22;;;21.14;51.42
66486;BME280;53303;47.476;8.084;2022-10-16T03:55:49;96459.28;;;21.41;51.55
66486;BME280;53303;47.476;8.084;2022-10-16T03:58:17;96454.44;;;21.36;51.43
66486;BME280;53303;47.476;8.084;2022-10-16T04:00:43;96470.66;;;21.43;51.59
66486;BME280;53303;47.476;8.084;2022-10-16T04:03:10;96470.66;;;21.43;51.50
66486;BME280;53303;47.476;8.084;2022-10-16T04:05:36;96427.69;;;21.12;51.67
66486;BME280;53303;47.476;8.084;2022-10-16T04:08:04;96463.50;;;21.36;51.52
66486;BME280;53303;47.476;8.084;2022-10-16T04:10:29;96459.16;;;21.29;51.36
66486;BME280;53303;47.476;8.084;2022-10-16T04:12:55;96474.66;;;21.42;51.45
66486;BME280;53303;47.476;8.084;2022-10-16T04:15:23;96471.88;;;21.42;51.62
66486;BME280;53303;47.476;8.084;2022-10-16T04:17:49;96468.03;;;21.34;51.48
66486;BME280;53303;47.476;8.084;2022-10-16T04:20:14;96487.03;;;21.41;51.60
66486;BME280;53303;47.476;8.084;2022-10-16T04:22:43;96488.28;;;21.40;51.63
66486;BME280;53303;47.476;8.084;2022-10-16T04:25:08;96484.41;;;21.32;51.78
66486;BME280;53303;47.476;8.084;2022-10-16T04:27:36;96462.69;;;21.30;51.85
66486;BME280;53303;47.476;8.084;2022-10-16T04:30:04;96489.03;;;21.40;51.68
66486;BME280;53303;47.476;8.084;2022-10-16T04:32:30;96464.19;;;21.25;51.75
66486;BME280;53303;47.476;8.084;2022-10-16T04:34:55;96498.16;;;21.41;51.68
66486;BME280;53303;47.476;8.084;2022-10-16T04:37:24;96492.59;;;21.41;51.60
66486;BME280;53303;47.476;8.084;2022-10-16T04:39:50;96487.44;;;21.34;51.92
66486;BME280;53303;47.476;8.084;2022-10-16T04:42:16;96492.59;;;21.41;51.94
66486;BME280;53303;47.476;8.084;2022-10-16T04:44:43;96476.06;;;21.32;51.90
66486;BME280;53303;47.476;8.084;2022-10-16T04:47:12;96489.53;;;21.39;51.86
66486;BME280;53303;47.476;8.084;2022-10-16T04:49:37;96487.25;;;21.37;51.81
66486;BME280;53303;47.476;8.084;2022-10-16T04:52:03;96494.59;;;21.40;51.66
66486;BME280;53303;47.476;8.084;2022-10-16T04:54:28;96482.69;;;21.34;51.77
66486;BME280;53303;47.476;8.084;2022-10-16T04:56:56;96479.41;;;21.36;51.59
66486;BME280;53303;47.476;8.084;2022-10-16T04:59:24;96483.47;;;21.40;51.86
66486;BME280;53303;47.476;8.084;2022-10-16T05:01:49;96483.47;;;21.40;51.91
66486;BME280;53303;47.476;8.084;2022-10-16T05:04:18;96491.06;;;21.40;51.72
66486;BME280;53303;47.476;8.084;2022-10-16T05:06:45;96493.53;;;21.32;51.91
66486;BME280;53303;47.476;8.084;2022-10-16T05:09:12;96489.53;;;21.39;51.92
66486;BME280;53303;47.476;8.084;2022-10-16T05:11:40;96499.38;;;21.40;51.83
66486;BME280;53303;47.476;8.084;2022-10-16T05:14:07;96498.63;;;21.39;52.01
66486;BME280;53303;47.476;8.084;2022-10-16T05:16:33;96489.00;;;21.35;51.82
66486;BME280;53303;47.476;8.084;2022-10-16T05:18:58;96498.63;;;21.39;51.75
66486;BME280;53303;47.476;8.084;2022-10-16T05:21:26;96494.81;;;21.37;51.81
66486;BME280;53303;47.476;8.084;2022-10-16T05:23:53;96489.75;;;21.35;51.89
66486;BME280;53303;47.476;8.084;2022-10-16T05:26:19;96489.97;;;21.32;51.63
66486;BME280;53303;47.476;8.084;2022-10-16T05:28:44;96497.09;;;21.38;51.84
66486;BME280;53303;47.476;8.084;2022-10-16T05:31:10;96508.97;;;21.39;51.87
66486;BME280;53303;47.476;8.084;2022-10-16T05:33:35;96501.91;;;21.38;51.86
66486;BME280;53303;47.476;8.084;2022-10-16T05:36:03;96491.75;;;21.35;51.81
66486;BME280;53303;47.476;8.084;2022-10-16T05:38:28;96483.88;;;21.27;51.67
66486;BME280;53303;47.476;8.084;2022-10-16T05:40:54;96487.97;;;21.32;51.71
66486;BME280;53303;47.476;8.084;2022-10-16T05:43:22;96503.41;;;21.39;51.92
66486;BME280;53303;47.476;8.084;2022-10-16T05:45:58;96499.59;;;21.36;51.82
66486;BME280;53303;47.476;8.084;2022-10-16T05:48:24;96466.56;;;21.12;52.07
66486;BME280;53303;47.476;8.084;2022-10-16T05:51:05;96508.41;;;21.35;51.89
66486;BME280;53303;47.476;8.084;2022-10-16T05:53:35;96476.94;;;21.17;51.84
66486;BME280;53303;47.476;8.084;2022-10-16T05:56:02;96512.25;;;21.37;51.77
66486;BME280;53303;47.476;8.084;2022-10-16T05:58:30;96515.78;;;21.38;51.88
66486;BME280;53303;47.476;8.084;2022-10-16T06:00:58;96523.34;;;21.37;51.92
66486;BME280;53303;47.476;8.084;2022-10-16T06:03:24;96506.56;;;21.26;51.68
66486;BME280;53303;47.476;8.084;2022-10-16T06:05:50;96525.84;;;21.35;51.72
66486;BME280;53303;47.476;8.084;2022-10-16T06:08:15;96530.34;;;21.33;51.96
66486;BME280;53303;47.476;8.084;2022-10-16T06:10:41;96534.16;;;21.35;51.75
66486;BME280;53303;47.476;8.084;2022-10-16T06:13:06;96539.22;;;21.37;51.82
66486;BME280;53303;47.476;8.084;2022-10-16T06:15:32;96532.16;;;21.36;51.74
66486;BME280;53303;47.476;8.084;2022-10-16T06:17:59;96539.72;;;21.35;51.77
66486;BME280;53303;47.476;8.084;2022-10-16T06:20:25;96541.25;;;21.36;51.81
66486;BME280;53303;47.476;8.084;2022-10-16T06:22:54;96546.03;;;21.36;51.78
66486;BME280;53303;47.476;8.084;2022-10-16T06:25:20;96542.16;;;21.27;52.06
66486;BME280;53303;47.476;8.084;2022-10-16T06:27:47;96557.38;;;21.32;52.57
66486;BME280;53303;47.476;8.084;2022-10-16T06:30:12;96564.22;;;21.37;53.56
66486;BME280;53303;47.476;8.084;2022-10-16T06:32:38;96564.47;;;21.39;54.02
66486;BME280;53303;47.476;8.084;2022-10-16T06:35:06;96552.34;;;21.36;54.52
66486;BME280;53303;47.476;8.084;2022-10-16T06:37:32;96551.13;;;21.37;54.67
66486;BME280;53303;47.476;8.084;2022-10-16T06:39:57;96545.25;;;21.35;54.92
66486;BME280;53303;47.476;8.084;2022-10-16T06:42:27;96569.63;;;21.46;54.73
66486;BME280;53303;47.476;8.084;2022-10-16T06:44:52;96568.41;;;21.47;54.49
66486;BME280;53303;47.476;8.084;2022-10-16T06:47:18;96549.56;;;21.36;54.26
66486;BME280;53303;47.476;8.084;2022-10-16T06:49:43;96568.09;;;21.45;53.72
66486;BME280;53303;47.476;8.084;2022-10-16T06:52:09;96578.94;;;21.43;53.68
66486;BME280;53303;47.476;8.084;2022-10-16T06:54:39;96571.72;;;21.30;53.70
66486;BME280;53303;47.476;8.084;2022-10-16T06:57:04;96593.56;;;21.43;53.51
66486;BME280;53303;47.476;8.084;2022-10-16T06:59:29;96586.91;;;21.35;53.52
66486;BME280;53303;47.476;8.084;2022-10-16T07:01:55;96602.06;;;21.34;53.25
66486;BME280;53303;47.476;8.084;2022-10-16T07:04:20;96611.47;;;21.42;53.52
66486;BME280;53303;47.476;8.084;2022-10-16T07:06:48;96620.59;;;21.43;53.09
66486;BME280;53303;47.476;8.084;2022-10-16T07:09:13;96623.34;;;21.43;53.26
66486;BME280;53303;47.476;8.084;2022-10-16T07:11:40;96617.81;;;21.43;53.19
66486;BME280;53303;47.476;8.084;2022-10-16T07:14:15;96613.91;;;21.35;52.98
66486;BME280;53303;47.476;8.084;2022-10-16T07:16:41;96628.91;;;21.43;52.86
66486;BME280;53303;47.476;8.084;2022-10-16T07:19:06;96628.91;;;21.43;53.06
66486;BME280;53303;47.476;8.084;2022-10-16T07:21:34;96627.66;;;21.44;53.05
66486;BME280;53303;47.476;8.084;2022-10-16T07:24:04;96634.75;;;21.45;53.11
66486;BME280;53303;47.476;8.084;2022-10-16T07:26:32;96634.75;;;21.45;52.94
66486;BME280;53303;47.476;8.084;2022-10-16T07:29:00;96627.19;;;21.45;53.04
66486;BME280;53303;47.476;8.084;2022-10-16T07:31:27;96629.19;;;21.45;53.18
66486;BME280;53303;47.476;8.084;2022-10-16T07:33:53;96617.75;;;21.37;53.19
66486;BME280;53303;47.476;8.084;2022-10-16T07:36:20;96630.25;;;21.47;53.19
66486;BME280;53303;47.476;8.084;2022-10-16T07:38:46;96617.03;;;21.42;53.23
66486;BME280;53303;47.476;8.084;2022-10-16T07:43:38;96590.06;;;21.22;53.32
66486;BME280;53303;47.476;8.084;2022-10-16T07:46:03;96627.72;;;21.49;53.23
66486;BME280;53303;47.476;8.084;2022-10-16T07:48:32;96632.03;;;21.51;53.49
66486;BME280;53303;47.476;8.084;2022-10-16T07:51:03;96632.31;;;21.53;53.49
66486;BME280;53303;47.476;8.084;2022-10-16T07:53:31;96637.88;;;21.53;53.49
66486;BME280;53303;47.476;8.084;2022-10-16T07:55:58;96652.03;;;21.55;53.52
66486;BME280;53303;47.476;8.084;2022-10-16T07:58:24;96647.75;;;21.54;53.59
66486;BME280;53303;47.476;8.084;2022-10-16T08:03:15;96652.28;;;21.57;53.96
66486;BME280;53303;47.476;8.084;2022-10-16T08:05:43;96652.25;;;21.51;53.88
66486;BME280;53303;47.476;8.084;2022-10-16T08:08:13;96653.28;;;21.54;53.92
66486;BME280;53303;47.476;8.084;2022-10-16T08:10:39;96658.38;;;21.55;54.01
66486;BME280;53303;47.476;8.084;2022-10-16T08:13:07;96656.63;;;21.58;54.00
66486;BME280;53303;47.476;8.084;2022-10-16T08:15:34;96670.06;;;21.65;54.20
66486;BME280;53303;47.476;8.084;2022-10-16T08:18:02;96664.03;;;21.66;54.01
66486;BME280;53303;47.476;8.084;2022-10-16T08:20:28;96659.66;;;21.60;54.06
66486;BME280;53303;47.476;8.084;2022-10-16T08:22:59;96667.84;;;21.69;53.87
66486;BME280;53303;47.476;8.084;2022-10-16T08:25:24;96658.22;;;21.64;54.03
66486;BME280;53303;47.476;8.084;2022-10-16T08:27:50;96672.44;;;21.72;54.10
66486;BME280;53303;47.476;8.084;2022-10-16T08:30:17;96662.84;;;21.73;54.17
66486;BME280;53303;47.476;8.084;2022-10-16T08:32:46;96667.13;;;21.74;54.12
66486;BME280;53303;47.476;8.084;2022-10-16T08:35:12;96672.22;;;21.76;54.36
66486;BME280;53303;47.476;8.084;2022-10-16T08:37:38;96672.69;;;21.74;54.33
66486;BME280;53303;47.476;8.084;2022-10-16T08:40:05;96674.22;;;21.75;54.55
66486;BME280;53303;47.476;8.084;2022-10-16T08:42:52;96690.41;;;21.77;54.36
66486;BME280;53303;47.476;8.084;2022-10-16T08:48:06;96688.19;;;21.81;54.63
66486;BME280;53303;47.476;8.084;2022-10-16T08:50:38;96700.31;;;21.83;54.56
66486;BME280;53303;47.476;8.084;2022-10-16T08:53:05;96687.59;;;21.71;54.55
66486;BME280;53303;47.476;8.084;2022-10-16T08:55:40;96687.38;;;21.75;54.60
66486;BME280;53303;47.476;8.084;2022-10-16T08:58:36;96705.59;;;21.81;54.70
66486;BME280;53303;47.476;8.084;2022-10-16T09:01:11;96709.22;;;21.88;54.45
66486;BME280;53303;47.476;8.084;2022-10-16T09:11:53;96704.75;;;21.96;54.05
66486;BME280;53303;47.476;8.084;2022-10-16T09:14:32;96703.50;;;21.97;53.88
66486;BME280;53303;47.476;8.084;2022-10-16T09:25:28;96707.38;;;22.05;52.99
66486;BME280;53303;47.476;8.084;2022-10-16T09:27:54;96703.06;;;22.04;53.00
66486;BME280;53303;47.476;8.084;2022-10-16T09:30:21;96717.78;;;22.10;52.78
66486;BME280;53303;47.476;8.084;2022-10-16T09:32:52;96701.03;;;22.04;52.70
66486;BME280;53303;47.476;8.084;2022-10-16T09:35:27;96705.94;;;22.15;52.37
66486;BME280;53303;47.476;8.084;2022-10-16T09:37:57;96709.72;;;22.12;52.35
66486;BME280;53303;47.476;8.084;2022-10-16T09:40:26;96709.28;;;22.19;51.92
66486;BME280;53303;47.476;8.084;2022-10-16T09:43:12;96710.31;;;22.22;51.94
66486;BME280;53303;47.476;8.084;2022-10-16T09:48:21;96711.06;;;22.22;51.54
66486;BME280;53303;47.476;8.084;2022-10-16T09:51:02;96693.84;;;22.18;51.45
66486;BME280;53303;47.476;8.084;2022-10-16T09:53:45;96715.19;;;22.27;51.45
66486;BME280;53303;47.476;8.084;2022-10-16T09:56:24;96710.44;;;22.33;51.29
66486;BME280;53303;47.476;8.084;2022-10-16T09:58:53;96711.75;;;22.38;51.25
66486;BME280;53303;47.476;8.084;2022-10-16T10:01:19;96687.09;;;22.25;50.90
66486;BME280;53303;47.476;8.084;2022-10-16T10:03:46;96713.06;;;22.42;50.61
66486;BME280;53303;47.476;8.084;2022-10-16T10:06:25;96710.78;;;22.41;50.49
66486;BME280;53303;47.476;8.084;2022-10-16T10:11:48;96731.56;;;22.51;49.89
66486;BME280;53303;47.476;8.084;2022-10-16T10:14:20;96719.69;;;22.51;49.73
66486;BME280;53303;47.476;8.084;2022-10-16T10:16:47;96721.75;;;22.56;49.42
66486;BME280;53303;47.476;8.084;2022-10-16T10:19:21;96725.28;;;22.56;49.23
66486;BME280;53303;47.476;8.084;2022-10-16T10:21:49;96717.78;;;22.62;48.93
66486;BME280;53303;47.476;8.084;2022-10-16T10:24:16;96720.56;;;22.62;49.20
66486;BME280;53303;47.476;8.084;2022-10-16T10:26:54;96713.22;;;22.65;48.95
66486;BME280;53303;47.476;8.084;2022-10-16T10:35:27;96720.59;;;22.68;48.64
66486;BME280;53303;47.476;8.084;2022-10-16T10:38:13;96723.13;;;22.66;48.46
66486;BME280;53303;47.476;8.084;2022-10-16T10:41:14;96716.28;;;22.67;48.46
66486;BME280;53303;47.476;8.084;2022-10-16T10:44:26;96707.94;;;22.67;48.47
66486;BME280;53303;47.476;8.084;2022-10-16T10:49:57;96703.16;;;22.68;48.60
66486;BME280;53303;47.476;8.084;2022-10-16T10:55:31;96707.47;;;22.74;48.87
66486;BME280;53303;47.476;8.084;2022-10-16T11:06:22;96726.56;;;22.87;49.31
66486;BME280;53303;47.476;8.084;2022-10-16T11:09:02;96717.41;;;22.81;49.16
66486;BME280;53303;47.476;8.084;2022-10-16T11:11:40;96713.41;;;22.88;48.88
66486;BME280;53303;47.476;8.084;2022-10-16T11:16:43;96714.72;;;22.92;48.97
66486;BME280;53303;47.476;8.084;2022-10-16T11:25:19;96716.25;;;22.99;48.51
66486;BME280;53303;47.476;8.084;2022-10-16T11:30:40;96702.38;;;23.05;48.29
66486;BME280;53303;47.476;8.084;2022-10-16T11:36:11;96704.94;;;23.08;47.98
66486;BME280;53303;47.476;8.084;2022-10-16T11:41:24;96684.91;;;23.04;47.82
66486;BME280;53303;47.476;8.084;2022-10-16T11:49:43;96682.97;;;23.10;47.73
66486;BME280;53303;47.476;8.084;2022-10-16T11:54:43;96692.91;;;23.23;47.52
66486;BME280;53303;47.476;8.084;2022-10-16T11:57:22;96679.97;;;23.19;47.56
66486;BME280;53303;47.476;8.084;2022-10-16T11:59:55;96683.03;;;23.27;47.43
66486;BME280;53303;47.476;8.084;2022-10-16T12:05:04;96661.22;;;23.20;47.54
66486;BME280;53303;47.476;8.084;2022-10-16T12:10:30;96681.31;;;23.35;47.28
66486;BME280;53303;47.476;8.084;2022-10-16T12:13:03;96673.72;;;23.36;47.35
66486;BME280;53303;47.476;8.084;2022-10-16T12:15:33;96667.63;;;23.37;46.90
66486;BME280;53303;47.476;8.084;2022-10-16T12:17:59;96671.19;;;23.38;46.88
66486;BME280;53303;47.476;8.084;2022-10-16T12:22:56;96674.25;;;23.46;46.52
66486;BME280;53303;47.476;8.084;2022-10-16T12:25:34;96663.09;;;23.46;46.56
66486;BME280;53303;47.476;8.084;2022-10-16T12:28:04;96687.16;;;23.49;46.47
66486;BME280;53303;47.476;8.084;2022-10-16T12:30:34;96671.97;;;23.44;46.43
66486;BME280;53303;47.476;8.084;2022-10-16T12:33:05;96651.44;;;23.36;46.57
66486;BME280;53303;47.476;8.084;2022-10-16T12:35:42;96674.53;;;23.53;46.32
66486;BME280;53303;47.476;8.084;2022-10-16T12:40:57;96661.34;;;23.48;46.26
66486;BME280;53303;47.476;8.084;2022-10-16T12:43:36;96668.97;;;23.53;46.31
66486;BME280;53303;47.476;8.084;2022-10-16T12:46:22;96666.44;;;23.55;46.38
66486;BME280;53303;47.476;8.084;2022-10-16T12:48:49;96667.72;;;23.60;46.04
66486;BME280;53303;47.476;8.084;2022-10-16T12:51:36;96665.44;;;23.59;46.27
66486;BME280;53303;47.476;8.084;2022-10-16T12:57:05;96664.41;;;23.62;45.82
66486;BME280;53303;47.476;8.084;2022-10-16T12:59:44;96661.66;;;23.67;46.21
66486;BME280;53303;47.476;8.084;2022-10-16T13:07:39;96662.94;;;23.72;45.86
66486;BME280;53303;47.476;8.084;2022-10-16T13:29:31;96657.94;;;23.82;45.86
66486;BME280;53303;47.476;8.084;2022-10-16T13:31:58;96655.41;;;23.84;45.53
66486;BME280;53303;47.476;8.084;2022-10-16T13:34:26;96651.63;;;23.87;45.64
66486;BME280;53303;47.476;8.084;2022-10-16T13:36:52;96647.53;;;23.88;45.55
66486;BME280;53303;47.476;8.084;2022-10-16T13:39:28;96657.19;;;23.87;45.94
66486;BME280;53303;47.476;8.084;2022-10-16T13:42:05;96661.22;;;23.86;45.72
66486;BME280;53303;47.476;8.084;2022-10-16T13:44:40;96657.94;;;23.87;45.94
66486;BME280;53303;47.476;8.084;2022-10-16T13:47:28;96650.81;;;23.81;45.86
66486;BME280;53303;47.476;8.084;2022-10-16T13:50:06;96649.31;;;23.85;45.57
66486;BME280;53303;47.476;8.084;2022-10-16T13:52:34;96660.97;;;23.89;46.11
66486;BME280;53303;47.476;8.084;2022-10-16T13:55:04;96664.03;;;23.91;46.22
66486;BME280;53303;47.476;8.084;2022-10-16T13:57:30;96656.16;;;23.90;46.01
66486;BME280;53303;47.476;8.084;2022-10-16T13:59:55;96651.63;;;23.87;46.10
66486;BME280;53303;47.476;8.084;2022-10-16T14:02:31;96661.22;;;23.91;46.12
66486;BME280;53303;47.476;8.084;2022-10-16T14:05:01;96640.72;;;23.83;46.20
66486;BME280;53303;47.476;8.084;2022-10-16T14:07:29;96666.06;;;23.91;46.35
66486;BME280;53303;47.476;8.084;2022-10-16T14:10:03;96657.94;;;23.87;46.11
66486;BME280;53303;47.476;8.084;2022-10-16T14:12:29;96664.53;;;23.90;46.23
66486;BME280;53303;47.476;8.084;2022-10-16T14:14:57;96660.72;;;23.87;46.11
66486;BME280;53303;47.476;8.084;2022-10-16T14:19:55;96672.63;;;23.93;46.28
66486;BME280;53303;47.476;8.084;2022-10-16T14:22:34;96671.63;;;23.91;46.09
66486;BME280;53303;47.476;8.084;2022-10-16T14:25:01;96677.72;;;23.95;46.26
66486;BME280;53303;47.476;8.084;2022-10-16T14:27:33;96677.72;;;23.95;46.12
66486;BME280;53303;47.476;8.084;2022-10-16T14:30:21;96672.38;;;23.91;46.09
66486;BME280;53303;47.476;8.084;2022-10-16T14:32:58;96674.19;;;23.94;45.96
66486;BME280;53303;47.476;8.084;2022-10-16T14:35:36;96670.59;;;23.88;46.30
66486;BME280;53303;47.476;8.084;2022-10-16T14:38:03;96669.59;;;23.91;46.06
66486;BME280;53303;47.476;8.084;2022-10-16T14:40:31;96656.94;;;23.90;45.80
66486;BME280;53303;47.476;8.084;2022-10-16T14:43:00;96670.38;;;23.98;46.06
66486;BME280;53303;47.476;8.084;2022-10-16T14:45:31;96665.06;;;23.94;45.96
66486;BME280;53303;47.476;8.084;2022-10-16T14:48:00;96669.09;;;23.99;45.76
66486;BME280;53303;47.476;8.084;2022-10-16T14:50:26;96646.53;;;23.85;45.76
66486;BME280;53303;47.476;8.084;2022-10-16T14:52:52;96667.59;;;23.98;45.63
66486;BME280;53303;47.476;8.084;2022-10-16T14:55:18;96667.06;;;23.99;45.75
66486;BME280;53303;47.476;8.084;2022-10-16T14:57:46;96667.06;;;23.99;45.93
66486;BME280;53303;47.476;8.084;2022-10-16T15:00:19;96671.88;;;23.99;45.92
66486;BME280;53303;47.476;8.084;2022-10-16T15:02:49;96674.69;;;23.99;46.01
66486;BME280;53303;47.476;8.084;2022-10-16T15:05:23;96667.31;;;23.95;46.18
66486;BME280;53303;47.476;8.084;2022-10-16T15:07:50;96680.00;;;23.97;46.11
66486;BME280;53303;47.476;8.084;2022-10-16T15:10:22;96676.47;;;23.96;46.21
66486;BME280;53303;47.476;8.084;2022-10-16T15:12:48;96676.22;;;23.94;46.52
66486;BME280;53303;47.476;8.084;2022-10-16T15:17:52;96666.81;;;23.86;46.28
66486;BME280;53303;47.476;8.084;2022-10-16T15:20:25;96674.41;;;23.91;46.50
66486;BME280;53303;47.476;8.084;2022-10-16T15:22:51;96677.97;;;23.91;46.28
66486;BME280;53303;47.476;8.084;2022-10-16T15:25:31;96668.31;;;23.81;46.39
66486;BME280;53303;47.476;8.084;2022-10-16T15:28:01;96688.34;;;23.91;46.58
66486;BME280;53303;47.476;8.084;2022-10-16T15:30:27;96680.25;;;23.87;46.49